TimeEST,TemperatureF,Dew PointF,Humidity,Sea Level PressureIn,VisibilityMPH,Wind Direction,Wind SpeedMPH,Gust SpeedMPH,PrecipitationIn,Events,Conditions,WindDirDegrees,DateUTC
12:11 AM,53.6,53.6,100,29.99,0.2,South,6.9,-,N/A,,Overcast,170,2013-01-14 05:11:00
12:33 AM,53.6,53.6,100,29.99,0.5,SSE,6.9,-,N/A,,Overcast,160,2013-01-14 05:33:00
12:54 AM,53.6,53.6,100,29.99,0.8,SSE,9.2,-,N/A,,Overcast,160,2013-01-14 05:54:00
1:15 AM,53.6,53.6,100,29.99,1.0,SSE,6.9,-,N/A,,Overcast,150,2013-01-14 06:15:00
1:36 AM,53.6,53.6,100,29.99,2.0,South,5.8,-,N/A,,Mostly Cloudy,170,2013-01-14 06:36:00
1:58 AM,57.2,57.2,100,29.99,7.0,South,11.5,-,N/A,,Clear,190,2013-01-14 06:58:00
2:19 AM,57.2,57.2,100,29.99,10.0,South,11.5,17.3,N/A,,Clear,180,2013-01-14 07:19:00
2:40 AM,57.2,57.2,100,29.99,10.0,South,11.5,-,N/A,,Clear,190,2013-01-14 07:40:00
3:23 AM,59.0,59.0,100,29.99,10.0,SSW,8.1,-,N/A,,Clear,200,2013-01-14 08:23:00
3:44 AM,57.2,57.2,100,29.99,10.0,South,6.9,-,N/A,,Clear,190,2013-01-14 08:44:00
4:05 AM,57.2,57.2,100,29.97,10.0,South,6.9,-,N/A,,Clear,180,2013-01-14 09:05:00
4:27 AM,55.4,55.4,100,29.96,7.0,SSE,4.6,-,N/A,,Clear,160,2013-01-14 09:27:00
4:48 AM,55.4,55.4,100,29.97,7.0,South,5.8,-,N/A,,Clear,170,2013-01-14 09:48:00
5:30 AM,57.2,57.2,100,29.98,10.0,South,6.9,-,N/A,,Clear,180,2013-01-14 10:30:00
5:52 AM,59.0,59.0,100,29.98,10.0,South,6.9,-,N/A,,Clear,170,2013-01-14 10:52:00
6:13 AM,59.0,59.0,100,30.00,10.0,SSW,5.8,-,N/A,,Clear,200,2013-01-14 11:13:00
6:34 AM,59.0,59.0,100,30.01,10.0,South,3.5,-,N/A,,Clear,190,2013-01-14 11:34:00
6:55 AM,59.0,59.0,100,30.02,10.0,SSE,4.6,-,N/A,,Clear,160,2013-01-14 11:55:00
7:17 AM,53.6,53.6,100,30.03,5.0,SSE,5.8,-,N/A,,Clear,150,2013-01-14 12:17:00
7:38 AM,53.6,53.6,100,30.03,4.0,SSE,4.6,-,N/A,,Clear,160,2013-01-14 12:38:00
7:59 AM,53.6,53.6,100,30.04,5.0,South,4.6,-,N/A,,Clear,180,2013-01-14 12:59:00
8:20 AM,55.4,55.4,100,30.07,7.0,SSW,3.5,-,N/A,,Clear,210,2013-01-14 13:20:00
8:42 AM,51.8,50.0,94,30.08,5.0,North,4.6,-,N/A,,Clear,350,2013-01-14 13:42:00
9:03 AM,46.4,46.4,100,30.10,5.0,NNW,4.6,-,N/A,,Scattered Clouds,340,2013-01-14 14:03:00
9:24 AM,46.4,46.4,100,30.11,5.0,NNW,6.9,-,N/A,,Mostly Cloudy,340,2013-01-14 14:24:00
9:45 AM,46.4,46.4,100,30.11,5.0,Calm,Calm,-,N/A,,Mostly Cloudy,0,2013-01-14 14:45:00
10:07 AM,48.2,48.2,100,30.14,5.0,North,9.2,-,N/A,,Overcast,360,2013-01-14 15:07:00
10:28 AM,50.0,50.0,100,30.15,3.0,North,5.8,-,N/A,,Overcast,350,2013-01-14 15:28:00
10:49 AM,50.0,50.0,100,30.16,3.0,Calm,Calm,-,N/A,,Overcast,0,2013-01-14 15:49:00
11:10 AM,50.0,50.0,100,30.15,4.0,Calm,Calm,-,N/A,,Mostly Cloudy,0,2013-01-14 16:10:00
11:32 AM,50.0,50.0,100,30.14,5.0,Calm,Calm,-,N/A,,Overcast,0,2013-01-14 16:32:00
12:14 PM,50.0,50.0,100,30.15,4.0,NNW,3.5,-,N/A,,Overcast,340,2013-01-14 17:14:00
12:35 PM,51.8,51.8,100,30.13,5.0,Calm,Calm,-,N/A,,Overcast,0,2013-01-14 17:35:00
12:57 PM,53.6,53.6,100,30.12,10.0,North,5.8,-,N/A,,Overcast,360,2013-01-14 17:57:00
1:18 PM,53.6,50.0,88,30.13,10.0,North,6.9,-,N/A,,Mostly Cloudy,350,2013-01-14 18:18:00
1:39 PM,53.6,51.8,94,30.15,5.0,North,4.6,-,N/A,,Mostly Cloudy,350,2013-01-14 18:39:00
2:00 PM,51.8,51.8,100,30.14,7.0,NNW,6.9,-,N/A,,Overcast,340,2013-01-14 19:00:00
3:04 PM,50.0,41.0,71,30.17,10.0,North,9.2,-,N/A,,Overcast,360,2013-01-14 20:04:00
3:25 PM,51.8,41.0,67,30.17,10.0,North,8.1,-,N/A,,Overcast,360,2013-01-14 20:25:00
3:47 PM,50.0,41.0,71,30.20,10.0,NNW,6.9,-,N/A,,Overcast,330,2013-01-14 20:47:00
4:08 PM,48.2,41.0,76,30.21,10.0,NNW,4.6,-,N/A,,Overcast,340,2013-01-14 21:08:00
4:29 PM,50.0,39.2,66,30.20,10.0,North,5.8,-,N/A,,Overcast,350,2013-01-14 21:29:00
4:50 PM,50.0,39.2,66,30.20,10.0,North,4.6,-,N/A,,Overcast,10,2013-01-14 21:50:00
5:33 PM,50.0,37.4,62,30.21,10.0,Calm,Calm,-,N/A,,Overcast,0,2013-01-14 22:33:00
5:54 PM,50.0,37.4,62,30.23,10.0,NNW,3.5,-,N/A,,Overcast,330,2013-01-14 22:54:00
6:58 PM,44.6,42.8,93,30.23,10.0,Calm,Calm,-,N/A,,Overcast,0,2013-01-14 23:58:00
7:19 PM,46.4,41.0,81,30.25,10.0,Calm,Calm,-,N/A,,Overcast,0,2013-01-15 00:19:00
7:40 PM,46.4,39.2,76,30.26,10.0,NNW,6.9,-,N/A,,Overcast,340,2013-01-15 00:40:00
8:01 PM,46.4,41.0,81,30.26,10.0,NNW,5.8,-,N/A,,Overcast,340,2013-01-15 01:01:00
8:23 PM,44.6,39.2,81,30.26,10.0,NNW,6.9,-,N/A,,Overcast,340,2013-01-15 01:23:00
8:44 PM,46.4,37.4,71,30.27,10.0,NNW,5.8,-,N/A,,Overcast,330,2013-01-15 01:44:00
9:05 PM,46.4,37.4,71,30.26,10.0,NNW,8.1,-,N/A,,Overcast,330,2013-01-15 02:05:00
9:48 PM,42.8,37.4,81,30.26,10.0,NNW,11.5,19.6,N/A,,Overcast,340,2013-01-15 02:48:00
10:09 PM,42.8,37.4,81,30.27,10.0,NNW,10.4,18.4,N/A,,Overcast,340,2013-01-15 03:09:00
10:30 PM,42.8,41.0,93,30.28,10.0,NNW,9.2,-,N/A,,Overcast,330,2013-01-15 03:30:00
10:51 PM,42.8,39.2,87,30.29,7.0,NNW,11.5,17.3,N/A,,Overcast,330,2013-01-15 03:51:00
11:13 PM,41.0,41.0,100,30.29,5.0,NNW,9.2,16.1,N/A,,Overcast,330,2013-01-15 04:13:00
11:34 PM,41.0,41.0,100,30.29,5.0,NNW,12.7,-,N/A,,Overcast,340,2013-01-15 04:34:00
11:55 PM,41.0,41.0,100,30.29,5.0,NNW,11.5,-,N/A,,Overcast,340,2013-01-15 04:55:00